sensor_id;sensor_type;location;lat;lon;timestamp;temperature;humidity
3792;DHT22;1911;53.768;11.474;2023-08-30T00:00:17;14.40;99.90
3792;DHT22;1911;53.768;11.474;2023-08-30T00:02:44;14.40;99.90
3792;DHT22;1911;53.768;11.474;2023-08-30T00:05:09;14.40;99.90
3792;DHT22;1911;53.768;11.474;2023-08-30T00:07:35;14.30;99.90
3792;DHT22;1911;53.768;11.474;2023-08-30T00:10:01;14.30;99.90
3792;DHT22;1911;53.768;11.474;2023-08-30T00:12:27;14.30;99.90
3792;DHT22;1911;53.768;11.474;2023-08-30T00:14:53;14.30;99.90
3792;DHT22;1911;53.768;11.474;2023-08-30T00:17:19;14.30;99.90
3792;DHT22;1911;53.768;11.474;2023-08-30T00:19:45;14.20;99.90
3792;DHT22;1911;53.768;11.474;2023-08-30T00:22:11;14.30;99.90
3792;DHT22;1911;53.768;11.474;2023-08-30T00:24:38;14.30;99.90
3792;DHT22;1911;53.768;11.474;2023-08-30T00:27:04;14.40;99.90
3792;DHT22;1911;53.768;11.474;2023-08-30T00:29:29;14.40;99.90
3792;DHT22;1911;53.768;11.474;2023-08-30T00:31:55;14.40;99.90
3792;DHT22;1911;53.768;11.474;2023-08-30T00:34:21;14.40;99.90
3792;DHT22;1911;53.768;11.474;2023-08-30T00:36:47;14.50;99.90
3792;DHT22;1911;53.768;11.474;2023-08-30T00:39:12;14.50;99.90
3792;DHT22;1911;53.768;11.474;2023-08-30T00:41:38;14.50;99.90
3792;DHT22;1911;53.768;11.474;2023-08-30T00:44:04;14.50;99.90
3792;DHT22;1911;53.768;11.474;2023-08-30T00:46:31;14.50;99.90
3792;DHT22;1911;53.768;11.474;2023-08-30T00:48:58;14.50;99.90
3792;DHT22;1911;53.768;11.474;2023-08-30T00:51:24;14.50;99.90
3792;DHT22;1911;53.768;11.474;2023-08-30T00:53:50;14.40;99.90
3792;DHT22;1911;53.768;11.474;2023-08-30T00:56:16;14.40;99.90
3792;DHT22;1911;53.768;11.474;2023-08-30T00:58:42;14.30;99.90
3792;DHT22;1911;53.768;11.474;2023-08-30T01:01:08;14.30;99.90
3792;DHT22;1911;53.768;11.474;2023-08-30T01:03:35;14.20;99.90
3792;DHT22;1911;53.768;11.474;2023-08-30T01:06:01;14.10;99.90
3792;DHT22;1911;53.768;11.474;2023-08-30T01:08:27;14.20;99.90
3792;DHT22;1911;53.768;11.474;2023-08-30T01:16:26;14.10;99.90
3792;DHT22;1911;53.768;11.474;2023-08-30T01:18:55;14.10;99.90
3792;DHT22;1911;53.768;11.474;2023-08-30T01:21:32;14.00;99.90
3792;DHT22;1911;53.768;11.474;2023-08-30T01:24:06;14.10;99.90
3792;DHT22;1911;53.768;11.474;2023-08-30T01:27:10;14.10;99.90
3792;DHT22;1911;53.768;11.474;2023-08-30T01:29:40;14.00;99.90
3792;DHT22;1911;53.768;11.474;2023-08-30T01:32:09;14.00;99.90
3792;DHT22;1911;53.768;11.474;2023-08-30T01:34:36;14.00;99.90
3792;DHT22;1911;53.768;11.474;2023-08-30T01:37:04;14.00;99.90
3792;DHT22;1911;53.768;11.474;2023-08-30T01:39:30;14.00;99.90
3792;DHT22;1911;53.768;11.474;2023-08-30T01:41:57;13.90;99.90
3792;DHT22;1911;53.768;11.474;2023-08-30T01:44:28;13.90;99.90
3792;DHT22;1911;53.768;11.474;2023-08-30T01:46:55;13.90;99.90
3792;DHT22;1911;53.768;11.474;2023-08-30T01:49:21;13.90;99.90
3792;DHT22;1911;53.768;11.474;2023-08-30T01:51:48;13.90;99.90
3792;DHT22;1911;53.768;11.474;2023-08-30T01:54:17;13.80;99.90
3792;DHT22;1911;53.768;11.474;2023-08-30T01:56:44;13.80;99.90
3792;DHT22;1911;53.768;11.474;2023-08-30T01:59:10;13.70;99.90
3792;DHT22;1911;53.768;11.474;2023-08-30T02:01:35;13.70;99.90
3792;DHT22;1911;53.768;11.474;2023-08-30T02:04:01;13.60;99.90
3792;DHT22;1911;53.768;11.474;2023-08-30T02:06:31;13.60;99.90
3792;DHT22;1911;53.768;11.474;2023-08-30T02:09:24;13.60;99.90
3792;DHT22;1911;53.768;11.474;2023-08-30T02:11:52;13.50;99.90
3792;DHT22;1911;53.768;11.474;2023-08-30T02:14:20;13.50;99.90
3792;DHT22;1911;53.768;11.474;2023-08-30T02:16:46;13.40;99.90
3792;DHT22;1911;53.768;11.474;2023-08-30T02:19:13;13.40;99.90
3792;DHT22;1911;53.768;11.474;2023-08-30T02:21:46;13.30;99.90
3792;DHT22;1911;53.768;11.474;2023-08-30T02:24:11;13.30;99.90
3792;DHT22;1911;53.768;11.474;2023-08-30T02:26:37;13.30;99.90
3792;DHT22;1911;53.768;11.474;2023-08-30T02:29:03;13.30;99.90
3792;DHT22;1911;53.768;11.474;2023-08-30T02:31:29;13.30;99.90
3792;DHT22;1911;53.768;11.474;2023-08-30T02:33:54;13.30;99.90
3792;DHT22;1911;53.768;11.474;2023-08-30T02:36:20;13.30;99.90
3792;DHT22;1911;53.768;11.474;2023-08-30T02:38:45;13.30;99.90
3792;DHT22;1911;53.768;11.474;2023-08-30T02:41:11;13.20;99.90
3792;DHT22;1911;53.768;11.474;2023-08-30T02:43:37;13.20;99.90
3792;DHT22;1911;53.768;11.474;2023-08-30T02:46:03;13.20;99.90
3792;DHT22;1911;53.768;11.474;2023-08-30T02:48:31;13.20;99.90
3792;DHT22;1911;53.768;11.474;2023-08-30T02:50:57;13.20;99.90
3792;DHT22;1911;53.768;11.474;2023-08-30T02:53:23;13.20;99.90
3792;DHT22;1911;53.768;11.474;2023-08-30T02:55:49;13.20;99.90
3792;DHT22;1911;53.768;11.474;2023-08-30T02:58:14;13.10;99.90
3792;DHT22;1911;53.768;11.474;2023-08-30T03:00:40;13.10;99.90
3792;DHT22;1911;53.768;11.474;2023-08-30T03:03:06;13.10;99.90
3792;DHT22;1911;53.768;11.474;2023-08-30T03:05:31;13.10;99.90
3792;DHT22;1911;53.768;11.474;2023-08-30T03:07:57;13.10;99.90
3792;DHT22;1911;53.768;11.474;2023-08-30T03:10:22;13.10;99.90
3792;DHT22;1911;53.768;11.474;2023-08-30T03:12:48;13.10;99.90
3792;DHT22;1911;53.768;11.474;2023-08-30T03:15:13;13.10;99.90
3792;DHT22;1911;53.768;11.474;2023-08-30T03:17:39;13.10;99.90
3792;DHT22;1911;53.768;11.474;2023-08-30T03:20:05;13.00;99.90
3792;DHT22;1911;53.768;11.474;2023-08-30T03:22:31;13.10;99.90
3792;DHT22;1911;53.768;11.474;2023-08-30T03:24:57;13.00;99.90
3792;DHT22;1911;53.768;11.474;2023-08-30T03:27:23;13.00;99.90
3792;DHT22;1911;53.768;11.474;2023-08-30T03:29:49;13.00;99.90
3792;DHT22;1911;53.768;11.474;2023-08-30T03:32:17;13.00;99.90
3792;DHT22;1911;53.768;11.474;2023-08-30T03:34:46;12.90;99.90
3792;DHT22;1911;53.768;11.474;2023-08-30T03:37:15;12.90;99.90
3792;DHT22;1911;53.768;11.474;2023-08-30T03:39:41;12.80;99.90
3792;DHT22;1911;53.768;11.474;2023-08-30T03:42:07;12.80;99.90
3792;DHT22;1911;53.768;11.474;2023-08-30T03:44:32;12.80;99.90
3792;DHT22;1911;53.768;11.474;2023-08-30T03:46:58;12.70;99.90
3792;DHT22;1911;53.768;11.474;2023-08-30T03:49:24;12.70;99.90
3792;DHT22;1911;53.768;11.474;2023-08-30T03:51:49;12.70;99.90
3792;DHT22;1911;53.768;11.474;2023-08-30T03:54:15;12.80;99.90
3792;DHT22;1911;53.768;11.474;2023-08-30T03:56:45;12.70;99.90
3792;DHT22;1911;53.768;11.474;2023-08-30T03:59:13;12.70;99.90
3792;DHT22;1911;53.768;11.474;2023-08-30T04:01:39;12.60;99.90
3792;DHT22;1911;53.768;11.474;2023-08-30T04:04:05;12.60;99.90
3792;DHT22;1911;53.768;11.474;2023-08-30T04:06:31;12.50;99.90
3792;DHT22;1911;53.768;11.474;2023-08-30T04:08:56;12.50;99.90
3792;DHT22;1911;53.768;11.474;2023-08-30T04:11:22;12.50;99.90
3792;DHT22;1911;53.768;11.474;2023-08-30T04:13:48;12.50;99.90
3792;DHT22;1911;53.768;11.474;2023-08-30T04:16:14;12.50;99.90
3792;DHT22;1911;53.768;11.474;2023-08-30T04:18:39;12.50;99.90
3792;DHT22;1911;53.768;11.474;2023-08-30T04:21:05;12.40;99.90
3792;DHT22;1911;53.768;11.474;2023-08-30T04:23:33;12.40;99.90
3792;DHT22;1911;53.768;11.474;2023-08-30T04:25:58;12.40;99.90
3792;DHT22;1911;53.768;11.474;2023-08-30T04:28:24;12.30;99.90
3792;DHT22;1911;53.768;11.474;2023-08-30T04:30:53;12.30;99.90
3792;DHT22;1911;53.768;11.474;2023-08-30T04:33:19;12.30;99.90
3792;DHT22;1911;53.768;11.474;2023-08-30T04:35:44;12.30;99.90
3792;DHT22;1911;53.768;11.474;2023-08-30T04:38:15;12.30;99.90
3792;DHT22;1911;53.768;11.474;2023-08-30T04:40:40;12.40;99.90
3792;DHT22;1911;53.768;11.474;2023-08-30T04:43:06;12.40;99.90
3792;DHT22;1911;53.768;11.474;2023-08-30T04:45:31;12.40;99.90
3792;DHT22;1911;53.768;11.474;2023-08-30T04:47:59;12.40;99.90
3792;DHT22;1911;53.768;11.474;2023-08-30T04:50:24;12.50;99.90
3792;DHT22;1911;53.768;11.474;2023-08-30T04:52:50;12.40;99.90
3792;DHT22;1911;53.768;11.474;2023-08-30T04:55:16;12.50;99.90
3792;DHT22;1911;53.768;11.474;2023-08-30T04:57:41;12.40;99.90
3792;DHT22;1911;53.768;11.474;2023-08-30T05:00:11;12.40;99.90
3792;DHT22;1911;53.768;11.474;2023-08-30T05:02:37;12.40;99.90
3792;DHT22;1911;53.768;11.474;2023-08-30T05:05:02;12.40;99.90
3792;DHT22;1911;53.768;11.474;2023-08-30T05:07:28;12.40;99.90
3792;DHT22;1911;53.768;11.474;2023-08-30T05:09:54;12.40;99.90
3792;DHT22;1911;53.768;11.474;2023-08-30T05:12:19;12.40;99.90
3792;DHT22;1911;53.768;11.474;2023-08-30T05:14:45;12.50;99.90
3792;DHT22;1911;53.768;11.474;2023-08-30T05:17:10;12.60;99.90
3792;DHT22;1911;53.768;11.474;2023-08-30T05:19:36;12.80;99.90
3792;DHT22;1911;53.768;11.474;2023-08-30T05:22:01;12.90;99.90
3792;DHT22;1911;53.768;11.474;2023-08-30T05:24:27;12.90;99.90
3792;DHT22;1911;53.768;11.474;2023-08-30T05:26:53;13.00;99.90
3792;DHT22;1911;53.768;11.474;2023-08-30T05:29:19;13.10;99.90
3792;DHT22;1911;53.768;11.474;2023-08-30T05:31:44;13.20;99.90
3792;DHT22;1911;53.768;11.474;2023-08-30T05:34:10;13.30;99.90
3792;DHT22;1911;53.768;11.474;2023-08-30T05:36:36;13.50;99.90
3792;DHT22;1911;53.768;11.474;2023-08-30T05:39:02;13.60;99.90
3792;DHT22;1911;53.768;11.474;2023-08-30T05:41:29;13.90;99.90
3792;DHT22;1911;53.768;11.474;2023-08-30T05:43:55;14.00;99.90
3792;DHT22;1911;53.768;11.474;2023-08-30T05:46:20;14.10;99.90
3792;DHT22;1911;53.768;11.474;2023-08-30T05:48:46;14.20;99.90
3792;DHT22;1911;53.768;11.474;2023-08-30T05:51:11;14.30;99.90
3792;DHT22;1911;53.768;11.474;2023-08-30T05:53:37;14.40;99.90
3792;DHT22;1911;53.768;11.474;2023-08-30T05:56:03;14.40;99.90
3792;DHT22;1911;53.768;11.474;2023-08-30T05:58:29;14.50;99.90
3792;DHT22;1911;53.768;11.474;2023-08-30T06:00:56;14.60;99.90
3792;DHT22;1911;53.768;11.474;2023-08-30T06:03:22;14.70;99.90
3792;DHT22;1911;53.768;11.474;2023-08-30T06:05:48;14.80;99.90
3792;DHT22;1911;53.768;11.474;2023-08-30T06:08:14;15.00;99.90
3792;DHT22;1911;53.768;11.474;2023-08-30T06:10:40;15.00;99.90
3792;DHT22;1911;53.768;11.474;2023-08-30T06:13:05;15.10;99.90
3792;DHT22;1911;53.768;11.474;2023-08-30T06:15:31;15.20;99.90
3792;DHT22;1911;53.768;11.474;2023-08-30T06:17:57;15.60;99.90
3792;DHT22;1911;53.768;11.474;2023-08-30T06:20:24;16.20;99.90
3792;DHT22;1911;53.768;11.474;2023-08-30T06:22:49;16.90;99.90
3792;DHT22;1911;53.768;11.474;2023-08-30T06:25:15;17.40;99.90
3792;DHT22;1911;53.768;11.474;2023-08-30T06:27:42;17.70;99.90
3792;DHT22;1911;53.768;11.474;2023-08-30T06:30:11;18.30;99.90
3792;DHT22;1911;53.768;11.474;2023-08-30T06:32:37;19.00;99.90
3792;DHT22;1911;53.768;11.474;2023-08-30T06:35:03;19.70;99.90
3792;DHT22;1911;53.768;11.474;2023-08-30T06:37:29;20.60;99.90
3792;DHT22;1911;53.768;11.474;2023-08-30T06:39:55;21.40;51.40
3792;DHT22;1911;53.768;11.474;2023-08-30T06:42:20;21.60;1.00
3792;DHT22;1911;53.768;11.474;2023-08-30T06:44:46;21.60;1.00
3792;DHT22;1911;53.768;11.474;2023-08-30T06:47:12;21.20;1.00
3792;DHT22;1911;53.768;11.474;2023-08-30T06:49:37;21.20;1.00
3792;DHT22;1911;53.768;11.474;2023-08-30T06:52:03;21.00;1.00
3792;DHT22;1911;53.768;11.474;2023-08-30T06:54:34;21.10;32.80
3792;DHT22;1911;53.768;11.474;2023-08-30T06:57:00;21.60;1.00
3792;DHT22;1911;53.768;11.474;2023-08-30T06:59:27;22.70;1.00
3792;DHT22;1911;53.768;11.474;2023-08-30T07:01:53;24.50;1.00
3792;DHT22;1911;53.768;11.474;2023-08-30T07:04:18;25.80;1.00
3792;DHT22;1911;53.768;11.474;2023-08-30T07:06:44;26.90;99.90
3792;DHT22;1911;53.768;11.474;2023-08-30T07:09:10;28.00;1.00
3792;DHT22;1911;53.768;11.474;2023-08-30T07:11:37;28.50;1.00
3792;DHT22;1911;53.768;11.474;2023-08-30T07:14:03;29.10;1.00
3792;DHT22;1911;53.768;11.474;2023-08-30T07:16:29;29.50;1.00
3792;DHT22;1911;53.768;11.474;2023-08-30T07:18:57;29.50;1.00
3792;DHT22;1911;53.768;11.474;2023-08-30T07:21:22;29.60;1.00
3792;DHT22;1911;53.768;11.474;2023-08-30T07:23:48;29.60;1.00
3792;DHT22;1911;53.768;11.474;2023-08-30T07:26:14;29.80;1.00
3792;DHT22;1911;53.768;11.474;2023-08-30T07:28:39;30.10;1.00
3792;DHT22;1911;53.768;11.474;2023-08-30T07:31:05;30.20;1.00
3792;DHT22;1911;53.768;11.474;2023-08-30T07:33:31;30.00;1.00
3792;DHT22;1911;53.768;11.474;2023-08-30T07:35:57;29.80;1.00
3792;DHT22;1911;53.768;11.474;2023-08-30T07:38:23;29.60;1.00
3792;DHT22;1911;53.768;11.474;2023-08-30T07:40:48;29.70;1.00
3792;DHT22;1911;53.768;11.474;2023-08-30T07:43:14;29.90;1.00
3792;DHT22;1911;53.768;11.474;2023-08-30T07:45:39;29.80;99.90
3792;DHT22;1911;53.768;11.474;2023-08-30T07:48:05;29.40;99.90
3792;DHT22;1911;53.768;11.474;2023-08-30T07:50:30;29.50;99.90
3792;DHT22;1911;53.768;11.474;2023-08-30T07:52:56;29.60;99.90
3792;DHT22;1911;53.768;11.474;2023-08-30T07:55:22;29.70;99.90
3792;DHT22;1911;53.768;11.474;2023-08-30T07:57:47;29.70;99.90
3792;DHT22;1911;53.768;11.474;2023-08-30T08:00:13;30.00;99.90
3792;DHT22;1911;53.768;11.474;2023-08-30T08:02:40;30.10;99.90
3792;DHT22;1911;53.768;11.474;2023-08-30T08:05:06;30.30;99.90
3792;DHT22;1911;53.768;11.474;2023-08-30T08:07:32;30.30;99.90
3792;DHT22;1911;53.768;11.474;2023-08-30T08:09:57;30.00;99.90
3792;DHT22;1911;53.768;11.474;2023-08-30T08:12:23;30.30;99.90
3792;DHT22;1911;53.768;11.474;2023-08-30T08:14:48;30.70;99.90
3792;DHT22;1911;53.768;11.474;2023-08-30T08:17:14;30.70;99.90
3792;DHT22;1911;53.768;11.474;2023-08-30T08:19:40;30.80;99.90
3792;DHT22;1911;53.768;11.474;2023-08-30T08:22:08;31.10;99.90
3792;DHT22;1911;53.768;11.474;2023-08-30T08:24:33;31.10;99.90
3792;DHT22;1911;53.768;11.474;2023-08-30T08:26:59;31.00;99.90
3792;DHT22;1911;53.768;11.474;2023-08-30T08:29:27;31.10;99.90
3792;DHT22;1911;53.768;11.474;2023-08-30T08:31:53;30.80;99.90
3792;DHT22;1911;53.768;11.474;2023-08-30T08:34:19;30.50;99.90
3792;DHT22;1911;53.768;11.474;2023-08-30T08:36:44;30.20;99.90
3792;DHT22;1911;53.768;11.474;2023-08-30T08:39:10;29.90;99.90
3792;DHT22;1911;53.768;11.474;2023-08-30T08:41:40;29.70;99.90
3792;DHT22;1911;53.768;11.474;2023-08-30T08:44:10;29.50;99.90
3792;DHT22;1911;53.768;11.474;2023-08-30T08:46:37;29.50;99.90
3792;DHT22;1911;53.768;11.474;2023-08-30T08:49:21;29.50;99.90
3792;DHT22;1911;53.768;11.474;2023-08-30T08:51:47;29.20;99.90
3792;DHT22;1911;53.768;11.474;2023-08-30T08:54:14;29.00;99.90
3792;DHT22;1911;53.768;11.474;2023-08-30T08:56:40;28.90;99.90
3792;DHT22;1911;53.768;11.474;2023-08-30T08:59:06;28.50;99.90
3792;DHT22;1911;53.768;11.474;2023-08-30T09:01:34;28.60;99.90
3792;DHT22;1911;53.768;11.474;2023-08-30T09:04:04;28.50;99.90
3792;DHT22;1911;53.768;11.474;2023-08-30T09:06:31;28.30;99.90
3792;DHT22;1911;53.768;11.474;2023-08-30T09:08:57;28.10;99.90
3792;DHT22;1911;53.768;11.474;2023-08-30T09:11:22;27.60;99.90
3792;DHT22;1911;53.768;11.474;2023-08-30T09:13:48;27.20;99.90
3792;DHT22;1911;53.768;11.474;2023-08-30T09:16:14;27.00;99.90
3792;DHT22;1911;53.768;11.474;2023-08-30T09:18:41;26.80;99.90
3792;DHT22;1911;53.768;11.474;2023-08-30T09:21:10;26.70;99.90
3792;DHT22;1911;53.768;11.474;2023-08-30T09:23:37;26.50;99.90
3792;DHT22;1911;53.768;11.474;2023-08-30T09:26:03;26.50;99.90
3792;DHT22;1911;53.768;11.474;2023-08-30T09:28:29;26.30;99.90
3792;DHT22;1911;53.768;11.474;2023-08-30T09:30:58;25.50;99.90
3792;DHT22;1911;53.768;11.474;2023-08-30T09:33:33;25.10;99.90
3792;DHT22;1911;53.768;11.474;2023-08-30T09:35:59;24.60;99.90
3792;DHT22;1911;53.768;11.474;2023-08-30T09:38:25;23.80;99.90
3792;DHT22;1911;53.768;11.474;2023-08-30T09:40:51;23.40;1.00
3792;DHT22;1911;53.768;11.474;2023-08-30T09:43:20;22.80;99.90
3792;DHT22;1911;53.768;11.474;2023-08-30T09:45:50;22.60;1.00
3792;DHT22;1911;53.768;11.474;2023-08-30T09:48:23;22.40;1.00
3792;DHT22;1911;53.768;11.474;2023-08-30T09:50:53;22.60;1.00
3792;DHT22;1911;53.768;11.474;2023-08-30T09:53:24;22.70;1.00
3792;DHT22;1911;53.768;11.474;2023-08-30T09:55:52;22.50;1.00
3792;DHT22;1911;53.768;11.474;2023-08-30T09:58:18;22.60;1.00
3792;DHT22;1911;53.768;11.474;2023-08-30T10:00:45;22.60;1.00
3792;DHT22;1911;53.768;11.474;2023-08-30T10:03:11;22.70;99.90
3792;DHT22;1911;53.768;11.474;2023-08-30T10:05:39;22.80;1.00
3792;DHT22;1911;53.768;11.474;2023-08-30T10:08:07;22.90;1.00
3792;DHT22;1911;53.768;11.474;2023-08-30T10:10:35;22.80;99.90
3792;DHT22;1911;53.768;11.474;2023-08-30T10:13:01;22.70;1.00
3792;DHT22;1911;53.768;11.474;2023-08-30T10:15:27;22.80;1.00
3792;DHT22;1911;53.768;11.474;2023-08-30T10:17:58;22.90;1.00
3792;DHT22;1911;53.768;11.474;2023-08-30T10:20:24;22.70;99.90
3792;DHT22;1911;53.768;11.474;2023-08-30T10:22:51;22.50;99.90
3792;DHT22;1911;53.768;11.474;2023-08-30T10:25:20;22.50;99.90
3792;DHT22;1911;53.768;11.474;2023-08-30T10:27:48;22.40;99.90
3792;DHT22;1911;53.768;11.474;2023-08-30T10:30:15;22.80;99.90
3792;DHT22;1911;53.768;11.474;2023-08-30T10:32:44;22.70;99.90
3792;DHT22;1911;53.768;11.474;2023-08-30T10:35:15;22.70;99.90
3792;DHT22;1911;53.768;11.474;2023-08-30T10:37:41;22.80;99.90
3792;DHT22;1911;53.768;11.474;2023-08-30T10:40:07;22.80;99.90
3792;DHT22;1911;53.768;11.474;2023-08-30T10:42:34;22.80;99.90
3792;DHT22;1911;53.768;11.474;2023-08-30T10:45:05;22.70;99.90
3792;DHT22;1911;53.768;11.474;2023-08-30T10:47:35;22.70;91.10
3792;DHT22;1911;53.768;11.474;2023-08-30T10:50:05;22.80;59.10
3792;DHT22;1911;53.768;11.474;2023-08-30T10:52:31;22.90;1.00
3792;DHT22;1911;53.768;11.474;2023-08-30T10:55:16;22.90;1.00
3792;DHT22;1911;53.768;11.474;2023-08-30T10:57:43;23.20;1.00
3792;DHT22;1911;53.768;11.474;2023-08-30T11:00:19;23.40;1.00
3792;DHT22;1911;53.768;11.474;2023-08-30T11:02:46;23.30;1.00
3792;DHT22;1911;53.768;11.474;2023-08-30T11:05:14;23.00;1.00
3792;DHT22;1911;53.768;11.474;2023-08-30T11:07:40;23.00;1.00
3792;DHT22;1911;53.768;11.474;2023-08-30T11:10:07;22.70;1.00
3792;DHT22;1911;53.768;11.474;2023-08-30T11:12:34;22.30;1.00
3792;DHT22;1911;53.768;11.474;2023-08-30T11:15:00;21.90;1.00
3792;DHT22;1911;53.768;11.474;2023-08-30T11:17:26;21.60;1.00
3792;DHT22;1911;53.768;11.474;2023-08-30T11:20:14;21.60;1.00
3792;DHT22;1911;53.768;11.474;2023-08-30T11:22:42;21.70;55.00
3792;DHT22;1911;53.768;11.474;2023-08-30T11:25:09;21.70;1.00
3792;DHT22;1911;53.768;11.474;2023-08-30T11:27:36;22.00;99.90
3792;DHT22;1911;53.768;11.474;2023-08-30T11:30:02;22.40;1.00
3792;DHT22;1911;53.768;11.474;2023-08-30T11:32:34;22.70;1.00
3792;DHT22;1911;53.768;11.474;2023-08-30T11:35:00;22.70;1.00
3792;DHT22;1911;53.768;11.474;2023-08-30T11:37:27;22.60;1.00
3792;DHT22;1911;53.768;11.474;2023-08-30T11:39:54;22.50;1.00
3792;DHT22;1911;53.768;11.474;2023-08-30T11:42:21;22.30;1.00
3792;DHT22;1911;53.768;11.474;2023-08-30T11:44:46;22.00;1.00
3792;DHT22;1911;53.768;11.474;2023-08-30T11:47:18;21.80;1.00
3792;DHT22;1911;53.768;11.474;2023-08-30T11:49:45;21.70;1.00
3792;DHT22;1911;53.768;11.474;2023-08-30T11:52:11;21.60;99.90
3792;DHT22;1911;53.768;11.474;2023-08-30T11:54:37;21.60;99.90
3792;DHT22;1911;53.768;11.474;2023-08-30T11:57:03;21.60;99.90
3792;DHT22;1911;53.768;11.474;2023-08-30T11:59:28;21.60;99.90
3792;DHT22;1911;53.768;11.474;2023-08-30T12:01:54;21.70;99.90
3792;DHT22;1911;53.768;11.474;2023-08-30T12:04:20;21.80;67.30
3792;DHT22;1911;53.768;11.474;2023-08-30T12:06:55;21.80;1.00
3792;DHT22;1911;53.768;11.474;2023-08-30T12:09:20;21.90;1.00
3792;DHT22;1911;53.768;11.474;2023-08-30T12:11:51;22.10;54.40
3792;DHT22;1911;53.768;11.474;2023-08-30T12:14:16;22.30;1.00
3792;DHT22;1911;53.768;11.474;2023-08-30T12:16:42;22.60;1.00
3792;DHT22;1911;53.768;11.474;2023-08-30T12:19:12;22.70;1.00
3792;DHT22;1911;53.768;11.474;2023-08-30T12:21:47;23.00;1.00
3792;DHT22;1911;53.768;11.474;2023-08-30T12:24:13;23.10;1.00
3792;DHT22;1911;53.768;11.474;2023-08-30T12:26:38;23.20;1.00
3792;DHT22;1911;53.768;11.474;2023-08-30T12:29:05;23.10;1.00
3792;DHT22;1911;53.768;11.474;2023-08-30T12:31:34;23.20;1.00
3792;DHT22;1911;53.768;11.474;2023-08-30T12:34:00;23.20;1.00
3792;DHT22;1911;53.768;11.474;2023-08-30T12:36:25;23.10;1.00
3792;DHT22;1911;53.768;11.474;2023-08-30T12:38:51;23.10;1.00
3792;DHT22;1911;53.768;11.474;2023-08-30T12:41:17;23.10;1.00
3792;DHT22;1911;53.768;11.474;2023-08-30T12:43:42;23.10;1.00
3792;DHT22;1911;53.768;11.474;2023-08-30T12:46:08;23.10;1.00
3792;DHT22;1911;53.768;11.474;2023-08-30T12:48:33;23.30;1.00
3792;DHT22;1911;53.768;11.474;2023-08-30T12:50:59;23.40;1.00
3792;DHT22;1911;53.768;11.474;2023-08-30T12:53:24;23.40;1.00
3792;DHT22;1911;53.768;11.474;2023-08-30T12:55:50;23.30;1.00
3792;DHT22;1911;53.768;11.474;2023-08-30T12:58:16;23.30;1.00
3792;DHT22;1911;53.768;11.474;2023-08-30T13:00:41;23.20;1.00
3792;DHT22;1911;53.768;11.474;2023-08-30T13:03:07;23.20;1.00
3792;DHT22;1911;53.768;11.474;2023-08-30T13:05:33;23.20;1.00
3792;DHT22;1911;53.768;11.474;2023-08-30T13:07:59;23.10;1.00
3792;DHT22;1911;53.768;11.474;2023-08-30T13:10:25;22.70;1.00
3792;DHT22;1911;53.768;11.474;2023-08-30T13:12:51;22.40;1.00
3792;DHT22;1911;53.768;11.474;2023-08-30T13:15:17;22.20;1.00
3792;DHT22;1911;53.768;11.474;2023-08-30T13:17:43;22.10;1.00
3792;DHT22;1911;53.768;11.474;2023-08-30T13:20:09;22.00;1.00
3792;DHT22;1911;53.768;11.474;2023-08-30T13:22:34;22.00;1.00
3792;DHT22;1911;53.768;11.474;2023-08-30T13:25:00;21.80;1.00
3792;DHT22;1911;53.768;11.474;2023-08-30T13:27:26;21.60;1.00
3792;DHT22;1911;53.768;11.474;2023-08-30T13:29:51;21.40;1.00
3792;DHT22;1911;53.768;11.474;2023-08-30T13:32:17;21.40;1.00
3792;DHT22;1911;53.768;11.474;2023-08-30T13:34:42;21.40;1.00
3792;DHT22;1911;53.768;11.474;2023-08-30T13:37:11;21.30;1.00
3792;DHT22;1911;53.768;11.474;2023-08-30T13:39:38;21.30;1.00
3792;DHT22;1911;53.768;11.474;2023-08-30T13:42:04;21.30;1.00
3792;DHT22;1911;53.768;11.474;2023-08-30T13:44:30;21.30;1.00
3792;DHT22;1911;53.768;11.474;2023-08-30T13:46:55;21.20;1.00
3792;DHT22;1911;53.768;11.474;2023-08-30T13:49:21;21.20;1.00
3792;DHT22;1911;53.768;11.474;2023-08-30T13:51:46;21.20;1.00
3792;DHT22;1911;53.768;11.474;2023-08-30T13:54:12;21.00;1.00
3792;DHT22;1911;53.768;11.474;2023-08-30T13:56:37;21.00;1.00
3792;DHT22;1911;53.768;11.474;2023-08-30T13:59:03;21.00;1.00
3792;DHT22;1911;53.768;11.474;2023-08-30T14:01:31;21.10;1.00
3792;DHT22;1911;53.768;11.474;2023-08-30T14:03:57;21.10;1.00
3792;DHT22;1911;53.768;11.474;2023-08-30T14:06:23;21.10;1.00
3792;DHT22;1911;53.768;11.474;2023-08-30T14:08:48;21.10;1.00
3792;DHT22;1911;53.768;11.474;2023-08-30T14:11:14;21.10;1.00
3792;DHT22;1911;53.768;11.474;2023-08-30T14:13:40;21.10;1.00
3792;DHT22;1911;53.768;11.474;2023-08-30T14:16:06;21.10;1.00
3792;DHT22;1911;53.768;11.474;2023-08-30T14:18:32;21.10;1.00
3792;DHT22;1911;53.768;11.474;2023-08-30T14:20:59;21.10;1.00
3792;DHT22;1911;53.768;11.474;2023-08-30T14:23:28;21.20;1.00
3792;DHT22;1911;53.768;11.474;2023-08-30T14:26:05;21.20;13.30
3792;DHT22;1911;53.768;11.474;2023-08-30T14:28:39;21.30;1.00
3792;DHT22;1911;53.768;11.474;2023-08-30T14:31:09;21.30;1.00
3792;DHT22;1911;53.768;11.474;2023-08-30T14:33:35;21.40;13.90
3792;DHT22;1911;53.768;11.474;2023-08-30T14:36:01;21.50;5.50
3792;DHT22;1911;53.768;11.474;2023-08-30T14:38:28;21.50;10.00
3792;DHT22;1911;53.768;11.474;2023-08-30T14:40:57;21.60;1.00
3792;DHT22;1911;53.768;11.474;2023-08-30T14:43:23;21.60;1.00
3792;DHT22;1911;53.768;11.474;2023-08-30T14:45:48;21.60;1.00
3792;DHT22;1911;53.768;11.474;2023-08-30T14:48:14;21.70;59.20
3792;DHT22;1911;53.768;11.474;2023-08-30T14:50:39;21.70;82.60
3792;DHT22;1911;53.768;11.474;2023-08-30T14:53:05;21.60;99.90
3792;DHT22;1911;53.768;11.474;2023-08-30T14:55:32;21.70;99.90
3792;DHT22;1911;53.768;11.474;2023-08-30T14:57:57;21.80;32.30
3792;DHT22;1911;53.768;11.474;2023-08-30T15:00:23;21.80;7.60
3792;DHT22;1911;53.768;11.474;2023-08-30T15:02:49;21.80;1.00
3792;DHT22;1911;53.768;11.474;2023-08-30T15:05:15;21.80;1.00
3792;DHT22;1911;53.768;11.474;2023-08-30T15:07:41;21.80;1.00
3792;DHT22;1911;53.768;11.474;2023-08-30T15:10:06;21.90;41.10
3792;DHT22;1911;53.768;11.474;2023-08-30T15:12:32;21.90;59.60
3792;DHT22;1911;53.768;11.474;2023-08-30T15:14:58;21.90;42.30
3792;DHT22;1911;53.768;11.474;2023-08-30T15:17:23;21.80;1.00
3792;DHT22;1911;53.768;11.474;2023-08-30T15:19:49;21.70;10.40
3792;DHT22;1911;53.768;11.474;2023-08-30T15:22:14;21.60;70.60
3792;DHT22;1911;53.768;11.474;2023-08-30T15:24:40;21.60;9.90
3792;DHT22;1911;53.768;11.474;2023-08-30T15:27:05;21.50;52.10
3792;DHT22;1911;53.768;11.474;2023-08-30T15:29:31;21.50;99.90
3792;DHT22;1911;53.768;11.474;2023-08-30T15:31:57;21.50;99.90
3792;DHT22;1911;53.768;11.474;2023-08-30T15:34:23;21.40;99.90
3792;DHT22;1911;53.768;11.474;2023-08-30T15:36:48;21.30;1.00
3792;DHT22;1911;53.768;11.474;2023-08-30T15:39:14;21.20;99.90
3792;DHT22;1911;53.768;11.474;2023-08-30T15:41:43;21.20;1.00
3792;DHT22;1911;53.768;11.474;2023-08-30T15:44:09;21.10;1.00
3792;DHT22;1911;53.768;11.474;2023-08-30T15:46:34;21.00;1.00
3792;DHT22;1911;53.768;11.474;2023-08-30T15:49:00;20.90;1.00
3792;DHT22;1911;53.768;11.474;2023-08-30T15:51:26;20.80;1.00
3792;DHT22;1911;53.768;11.474;2023-08-30T15:53:51;20.70;11.80